createdAt,value
2019-01-25T00:01:11.926Z,251.37
2019-01-25T00:03:43.228Z,249.00
2019-01-25T00:06:14.039Z,247.53
2019-01-25T00:08:43.260Z,252.40
2019-01-25T00:11:12.457Z,240.23
2019-01-25T00:13:41.673Z,242.23
2019-01-25T00:16:11.357Z,249.90
2019-01-25T00:18:40.496Z,249.43
2019-01-25T00:21:09.989Z,235.83
2019-01-25T00:23:39.151Z,244.17
2019-01-25T00:26:10.229Z,239.47
2019-01-25T00:28:40.823Z,232.97
2019-01-25T00:31:12.369Z,236.47
2019-01-25T00:33:41.576Z,248.93
2019-01-25T00:36:11.084Z,236.27
2019-01-25T00:38:40.318Z,217.53
2019-01-25T00:41:09.479Z,240.00
2019-01-25T00:43:38.649Z,233.00
2019-01-25T00:46:07.814Z,205.17
2019-01-25T00:48:38.913Z,197.93
2019-01-25T00:51:08.085Z,240.90
2019-01-25T00:53:37.536Z,230.73
2019-01-25T00:56:08.249Z,246.27
2019-01-25T00:58:37.526Z,243.00
2019-01-25T01:01:06.846Z,246.40
2019-01-25T01:03:35.975Z,245.60
2019-01-25T01:06:06.734Z,235.77
2019-01-25T01:08:37.080Z,258.03
2019-01-25T01:11:08.079Z,251.40
2019-01-25T01:13:40.058Z,250.33
2019-01-25T01:16:09.822Z,260.03
2019-01-25T01:18:39.596Z,247.07
2019-01-25T01:21:11.010Z,253.67
2019-01-25T01:23:40.080Z,235.50
2019-01-25T01:26:10.952Z,232.03
2019-01-25T01:28:40.195Z,236.63
2019-01-25T01:31:09.443Z,245.73
2019-01-25T01:33:38.763Z,258.40
2019-01-25T01:36:09.217Z,237.60
2019-01-25T01:38:39.179Z,263.93
2019-01-25T01:41:08.320Z,268.63
2019-01-25T01:43:37.469Z,264.47
2019-01-25T01:46:07.161Z,270.33
2019-01-25T01:48:37.749Z,274.87
2019-01-25T01:51:11.095Z,273.90
2019-01-25T01:53:40.337Z,265.10
2019-01-25T01:56:11.373Z,275.30
2019-01-25T01:58:40.512Z,289.50
2019-01-25T02:01:11.023Z,244.27
2019-01-25T02:03:43.976Z,319.37
2019-01-25T02:06:13.304Z,316.60
2019-01-25T02:08:42.442Z,327.60
2019-01-25T02:11:13.362Z,320.90
2019-01-25T02:13:42.516Z,316.80
2019-01-25T02:16:14.758Z,340.87
2019-01-25T02:18:44.005Z,347.97
2019-01-25T02:21:16.448Z,345.33
2019-01-25T02:23:45.680Z,340.93
2019-01-25T02:26:14.828Z,345.50
2019-01-25T02:28:44.024Z,351.03
2019-01-25T02:31:13.191Z,342.63
2019-01-25T02:33:42.390Z,357.80
2019-01-25T02:36:12.614Z,324.20
2019-01-25T02:38:43.497Z,328.03
2019-01-25T02:41:12.930Z,309.73
2019-01-25T02:43:42.413Z,321.13
2019-01-25T02:46:12.745Z,304.20
2019-01-25T02:48:41.950Z,294.73
2019-01-25T02:51:13.455Z,275.63
2019-01-25T02:53:42.609Z,276.10
2019-01-25T02:56:13.166Z,282.13
2019-01-25T02:58:42.669Z,263.40
2019-01-25T03:01:11.910Z,245.00
2019-01-25T03:03:41.647Z,243.17
2019-01-25T03:06:11.218Z,245.10
2019-01-25T03:08:40.379Z,226.90
2019-01-25T03:11:10.455Z,211.73
2019-01-25T03:13:40.967Z,279.30
2019-01-25T03:16:10.214Z,274.20
2019-01-25T03:18:39.425Z,270.37
2019-01-25T03:21:12.647Z,282.13
2019-01-25T03:23:42.551Z,278.70
2019-01-25T03:26:13.304Z,266.50
2019-01-25T03:28:42.923Z,272.57
2019-01-25T03:31:13.664Z,277.50
2019-01-25T03:33:42.804Z,255.77
2019-01-25T03:36:14.356Z,249.50
2019-01-25T03:38:43.514Z,254.87
2019-01-25T03:41:12.637Z,259.57
2019-01-25T03:43:41.892Z,254.83
2019-01-25T03:46:12.203Z,253.67
2019-01-25T03:48:41.391Z,247.60
2019-01-25T03:51:11.251Z,248.50
2019-01-25T03:53:40.374Z,240.53
2019-01-25T03:56:10.484Z,243.03
2019-01-25T03:58:39.646Z,238.50
2019-01-25T04:01:08.913Z,243.27
2019-01-25T04:03:38.095Z,243.33
2019-01-25T04:06:07.459Z,243.83
2019-01-25T04:08:36.611Z,226.13
2019-01-25T04:11:08.805Z,234.40
2019-01-25T04:13:38.323Z,242.93
2019-01-25T04:16:07.542Z,245.77
2019-01-25T04:18:36.759Z,239.47
2019-01-25T04:21:06.281Z,251.00
2019-01-25T04:23:36.167Z,207.43
2019-01-25T04:26:06.187Z,208.17
2019-01-25T04:28:35.404Z,199.57
2019-01-25T04:31:05.560Z,238.80
2019-01-25T04:33:34.782Z,250.60
2019-01-25T04:36:04.109Z,236.87
2019-01-25T04:38:33.327Z,230.40
2019-01-25T04:41:02.740Z,240.23
2019-01-25T04:43:31.942Z,259.17
2019-01-25T04:46:01.156Z,243.97
2019-01-25T04:48:30.306Z,251.13
2019-01-25T04:51:02.595Z,240.47
2019-01-25T04:53:35.350Z,255.63
2019-01-25T04:56:06.082Z,240.43
2019-01-25T04:58:35.356Z,264.30
2019-01-25T05:01:09.448Z,253.83
2019-01-25T05:03:38.934Z,233.23
2019-01-25T05:06:08.461Z,236.43
2019-01-25T05:08:37.923Z,241.50
2019-01-25T05:11:20.010Z,268.30
2019-01-25T05:13:47.145Z,285.77
2019-01-25T05:16:18.386Z,291.73
2019-01-25T05:18:47.482Z,256.10
2019-01-25T05:21:21.969Z,246.53
2019-01-25T05:23:51.053Z,237.37
2019-01-25T05:26:20.902Z,209.73
2019-01-25T05:28:50.541Z,344.40
2019-01-25T05:31:24.113Z,343.47
2019-01-25T05:33:56.924Z,421.47
2019-01-25T05:36:26.097Z,388.80
2019-01-25T05:38:55.980Z,424.07
2019-01-25T05:41:28.549Z,391.80
2019-01-25T05:43:56.222Z,396.00
2019-01-25T05:46:25.344Z,382.13
2019-01-25T05:48:54.447Z,398.03
2019-01-25T05:51:33.613Z,433.57
2019-01-25T05:53:58.187Z,385.93
2019-01-25T05:56:28.821Z,385.00
2019-01-25T05:58:57.938Z,324.83
2019-01-25T06:01:28.496Z,367.67
2019-01-25T06:03:58.007Z,310.97
2019-01-25T06:06:27.127Z,295.53
2019-01-25T06:08:56.441Z,263.10
2019-01-25T06:11:26.905Z,252.97
2019-01-25T06:13:56.023Z,222.33
2019-01-25T06:16:26.787Z,299.03
2019-01-25T06:18:56.050Z,310.87
2019-01-25T06:21:25.683Z,322.37
2019-01-25T06:23:55.816Z,287.43
2019-01-25T06:26:25.284Z,327.30
2019-01-25T06:28:54.446Z,315.50
2019-01-25T06:31:25.032Z,340.73
2019-01-25T06:33:54.168Z,380.80
2019-01-25T06:36:26.396Z,385.00
2019-01-25T06:38:56.600Z,360.33
2019-01-25T06:41:28.196Z,338.10
2019-01-25T06:43:57.589Z,285.00
2019-01-25T06:46:27.102Z,305.10
2019-01-25T06:48:56.625Z,243.73
2019-01-25T06:51:27.032Z,213.13
2019-01-25T06:53:56.148Z,262.67
2019-01-25T06:56:25.619Z,225.83
2019-01-25T06:59:17.655Z,535.90
2019-01-25T07:01:56.675Z,403.63
2019-01-25T07:04:26.045Z,499.57
2019-01-25T07:06:55.419Z,533.27
2019-01-25T07:09:25.394Z,514.67
2019-01-25T07:11:54.895Z,600.23
2019-01-25T07:14:24.983Z,623.53
2019-01-25T07:16:54.079Z,573.93
2019-01-25T07:19:24.565Z,508.00
2019-01-25T07:21:55.281Z,383.20
2019-01-25T07:24:25.871Z,360.90
2019-01-25T07:26:55.005Z,260.03
2019-01-25T07:29:27.896Z,236.70
2019-01-25T07:31:57.803Z,315.37
2019-01-25T07:34:26.903Z,261.20
2019-01-25T07:36:56.023Z,250.53
2019-01-25T07:39:27.650Z,256.33
2019-01-25T07:42:00.285Z,216.83
2019-01-25T07:44:27.993Z,320.13
2019-01-25T07:46:59.005Z,359.37
2019-01-25T07:49:28.133Z,299.37
2019-01-25T07:51:59.654Z,343.50
2019-01-25T07:54:28.842Z,272.73
2019-01-25T07:57:00.425Z,390.47
2019-01-25T07:59:29.631Z,306.77
2019-01-25T08:01:58.869Z,367.17
2019-01-25T08:04:28.019Z,330.50
2019-01-25T08:06:57.181Z,323.93
2019-01-25T08:09:30.182Z,391.47
2019-01-25T08:12:07.024Z,369.03
2019-01-25T08:14:30.152Z,308.87
2019-01-25T08:16:59.807Z,318.73
2019-01-25T08:19:30.017Z,262.33
2019-01-25T08:21:59.389Z,290.27
2019-01-25T08:24:28.591Z,78.90
2019-01-25T08:26:57.853Z,232.77
2019-01-25T08:29:28.163Z,364.87
2019-01-25T08:31:57.597Z,394.90
2019-01-25T08:34:30.872Z,401.10
2019-01-25T08:37:01.828Z,376.97
2019-01-25T08:39:30.900Z,406.33
2019-01-25T08:42:00.058Z,376.10
2019-01-25T08:44:29.260Z,464.50
2019-01-25T08:46:59.511Z,463.37
2019-01-25T08:49:29.505Z,452.07
2019-01-25T08:51:58.757Z,380.50
2019-01-25T08:54:27.943Z,432.47
2019-01-25T08:56:56.979Z,352.27
2019-01-25T08:59:26.217Z,369.37
2019-01-25T09:01:55.354Z,324.27
2019-01-25T09:04:24.546Z,344.77
2019-01-25T09:06:53.736Z,351.03
2019-01-25T09:09:23.175Z,311.03
2019-01-25T09:11:53.082Z,433.20
2019-01-25T09:14:23.738Z,461.53
2019-01-25T09:16:52.872Z,428.70
2019-01-25T09:19:22.751Z,414.87
2019-01-25T09:21:51.950Z,436.23
2019-01-25T09:24:22.848Z,433.50
2019-01-25T09:26:52.047Z,420.50
2019-01-25T09:29:22.553Z,405.63
2019-01-25T09:31:52.062Z,383.70
2019-01-25T09:34:22.524Z,381.30
2019-01-25T09:36:51.821Z,363.57
2019-01-25T09:39:21.551Z,310.83
2019-01-25T09:41:50.951Z,305.70
2019-01-25T09:44:20.625Z,355.73
2019-01-25T09:46:50.194Z,329.73
2019-01-25T09:49:19.337Z,260.63
2019-01-25T09:51:48.433Z,288.43
2019-01-25T09:54:17.554Z,276.07
2019-01-25T09:56:46.807Z,276.57
2019-01-25T09:59:17.953Z,328.50
2019-01-25T10:01:47.098Z,305.27
2019-01-25T10:04:16.220Z,345.97
2019-01-25T10:06:45.438Z,369.60
2019-01-25T10:09:15.438Z,360.87
2019-01-25T10:11:44.626Z,357.83
2019-01-25T10:14:15.052Z,377.00
2019-01-25T10:16:44.224Z,370.27
2019-01-25T10:19:13.366Z,364.47
2019-01-25T10:21:42.386Z,412.83
2019-01-25T10:24:12.949Z,404.93
2019-01-25T10:26:42.090Z,380.40
2019-01-25T10:29:11.554Z,346.73
2019-01-25T10:31:40.848Z,326.90
2019-01-25T10:34:10.743Z,275.50
2019-01-25T10:36:40.026Z,323.47
2019-01-25T10:39:09.835Z,314.13
2019-01-25T10:41:38.993Z,359.67
2019-01-25T10:44:09.717Z,402.80
2019-01-25T10:46:39.313Z,407.33
2019-01-25T10:49:08.542Z,411.53
2019-01-25T10:51:37.748Z,385.60
2019-01-25T10:54:06.897Z,377.40
2019-01-25T10:56:36.028Z,377.63
2019-01-25T10:59:05.188Z,367.50
2019-01-25T11:01:34.327Z,368.03
2019-01-25T11:04:03.503Z,373.77
2019-01-25T11:06:32.747Z,367.77
2019-01-25T11:09:01.955Z,366.57
2019-01-25T11:11:31.065Z,388.10
2019-01-25T11:14:00.771Z,381.37
2019-01-25T11:16:29.931Z,366.33
2019-01-25T11:18:59.304Z,348.40
2019-01-25T11:21:29.855Z,351.63
2019-01-25T11:24:00.089Z,333.03
2019-01-25T11:26:29.226Z,351.97
2019-01-25T11:28:58.608Z,319.70
2019-01-25T11:31:27.846Z,253.77
2019-01-25T11:33:59.374Z,285.20
2019-01-25T11:36:29.526Z,269.40
2019-01-25T11:38:58.934Z,335.60
2019-01-25T11:41:28.055Z,322.40
2019-01-25T11:43:57.447Z,313.20
2019-01-25T11:46:29.150Z,325.90
2019-01-25T11:48:58.284Z,297.90
2019-01-25T11:51:27.763Z,323.93
2019-01-25T11:53:57.089Z,314.83
2019-01-25T11:56:27.627Z,326.37
2019-01-25T11:58:57.930Z,313.20
2019-01-25T12:01:27.080Z,324.37
2019-01-25T12:03:56.253Z,326.00
2019-01-25T12:06:26.161Z,310.17
2019-01-25T12:08:56.170Z,304.40
2019-01-25T12:11:25.861Z,329.93
2019-01-25T12:13:55.217Z,311.70
2019-01-25T12:16:31.639Z,286.03
2019-01-25T12:19:00.798Z,308.73
2019-01-25T12:21:30.017Z,304.73
2019-01-25T12:23:59.425Z,317.20
2019-01-25T12:26:29.189Z,307.17
2019-01-25T12:28:58.655Z,328.33
2019-01-25T12:31:27.936Z,300.87
2019-01-25T12:33:57.067Z,313.63
2019-01-25T12:36:26.414Z,327.67
2019-01-25T12:38:55.855Z,299.43
2019-01-25T12:41:26.716Z,276.07
2019-01-25T12:43:58.282Z,290.83
2019-01-25T12:46:28.882Z,276.87
2019-01-25T12:48:58.061Z,259.67
2019-01-25T12:51:49.012Z,247.73
2019-01-25T12:54:18.243Z,248.70
2019-01-25T12:56:48.022Z,252.23
2019-01-25T12:59:18.348Z,225.80
2019-01-25T13:01:47.520Z,225.27
2019-01-25T13:04:19.997Z,207.73
2019-01-25T13:06:50.622Z,182.43
2019-01-25T13:09:25.165Z,187.13
2019-01-25T13:11:54.346Z,177.50
2019-01-25T13:14:24.928Z,165.13
2019-01-25T13:16:55.627Z,195.57
2019-01-25T13:19:24.790Z,214.00
2019-01-25T13:21:53.883Z,205.97
2019-01-25T13:24:23.299Z,208.97
2019-01-25T13:26:52.787Z,220.40
2019-01-25T13:29:27.665Z,222.43
2019-01-25T13:31:57.191Z,217.67
2019-01-25T13:34:26.417Z,224.20
2019-01-25T13:36:57.160Z,236.57
2019-01-25T13:39:29.416Z,227.60
2019-01-25T13:41:59.330Z,213.00
2019-01-25T13:44:30.291Z,256.60
2019-01-25T13:46:59.915Z,238.87
2019-01-25T13:49:29.337Z,276.57
2019-01-25T13:51:58.676Z,259.13
2019-01-25T13:54:29.844Z,238.47
2019-01-25T13:56:59.405Z,132.50
2019-01-25T13:59:28.522Z,179.97
2019-01-25T14:01:57.758Z,249.30
2019-01-25T14:04:26.910Z,255.97
2019-01-25T14:07:03.314Z,261.97
2019-01-25T14:09:32.474Z,264.13
2019-01-25T14:12:01.694Z,271.37
2019-01-25T14:14:30.805Z,259.80
2019-01-25T14:17:00.250Z,283.30
2019-01-25T14:19:29.390Z,270.33
2019-01-25T14:21:58.807Z,268.27
2019-01-25T14:24:27.935Z,267.70
2019-01-25T14:26:57.294Z,257.50
2019-01-25T14:29:29.300Z,251.90
2019-01-25T14:31:57.651Z,261.13
2019-01-25T14:34:26.854Z,257.87
2019-01-25T14:36:56.012Z,239.03
2019-01-25T14:39:25.256Z,242.63
2019-01-25T14:41:54.707Z,223.77
2019-01-25T14:44:24.900Z,230.40
2019-01-25T14:46:54.057Z,217.97
2019-01-25T14:49:23.225Z,223.17
2019-01-25T14:51:53.971Z,209.17
2019-01-25T14:54:26.055Z,213.77
2019-01-25T14:56:55.221Z,224.90
2019-01-25T14:59:26.191Z,190.57
2019-01-25T15:01:55.393Z,187.93
2019-01-25T15:04:24.565Z,204.83
2019-01-25T15:06:53.701Z,215.87
2019-01-25T15:09:23.167Z,198.10
2019-01-25T15:11:52.545Z,208.90
2019-01-25T15:14:21.703Z,223.10
2019-01-25T15:16:50.866Z,194.67
2019-01-25T15:19:21.776Z,191.20
2019-01-25T15:21:51.042Z,213.73
2019-01-25T15:24:20.238Z,186.93
2019-01-25T15:26:49.864Z,186.00
2019-01-25T15:29:19.292Z,195.87
2019-01-25T15:31:48.440Z,208.20
2019-01-25T15:34:17.953Z,203.27
2019-01-25T15:36:47.130Z,168.40
2019-01-25T15:39:17.394Z,208.40
2019-01-25T15:41:48.106Z,172.77
2019-01-25T15:44:17.243Z,173.43
2019-01-25T15:46:46.390Z,187.30
2019-01-25T15:49:15.572Z,193.67
2019-01-25T15:51:48.705Z,166.00
2019-01-25T15:54:17.951Z,173.50
2019-01-25T15:56:48.735Z,164.83
2019-01-25T15:59:17.953Z,95.10
2019-01-25T16:01:47.833Z,166.43
2019-01-25T16:04:17.443Z,161.27
2019-01-25T16:06:46.571Z,135.77
2019-01-25T16:09:23.484Z,122.47
2019-01-25T16:11:46.704Z,122.00
2019-01-25T16:14:18.101Z,143.20
2019-01-25T16:16:47.541Z,156.47
2019-01-25T16:19:17.084Z,159.20
2019-01-25T16:21:46.468Z,168.43
2019-01-25T16:24:15.680Z,172.60
2019-01-25T16:26:45.135Z,186.70
2019-01-25T16:29:14.338Z,183.83
2019-01-25T16:31:43.473Z,187.27
2019-01-25T16:34:14.890Z,186.20
2019-01-25T16:36:50.920Z,199.40
2019-01-25T16:39:20.152Z,197.20
2019-01-25T16:41:49.299Z,208.50
2019-01-25T16:44:25.379Z,198.40
2019-01-25T16:46:49.307Z,198.43
2019-01-25T16:49:22.228Z,206.67
2019-01-25T16:51:53.015Z,188.57
2019-01-25T16:54:25.646Z,182.50
2019-01-25T16:56:55.260Z,171.63
2019-01-25T16:59:25.520Z,197.27
2019-01-25T17:01:55.848Z,198.83
2019-01-25T17:04:25.258Z,183.30
2019-01-25T17:06:56.635Z,207.40
2019-01-25T17:09:27.904Z,206.10
2019-01-25T17:11:57.003Z,214.90
2019-01-25T17:14:33.187Z,194.60
2019-01-25T17:16:57.024Z,202.27
2019-01-25T17:19:27.144Z,197.80
2019-01-25T17:21:56.303Z,218.70
2019-01-25T17:24:25.438Z,213.60
2019-01-25T17:26:56.150Z,223.20
2019-01-25T17:29:25.589Z,215.50
2019-01-25T17:31:54.731Z,206.50
2019-01-25T17:34:25.945Z,216.10
2019-01-25T17:36:55.109Z,221.67
2019-01-25T17:39:27.466Z,230.97
2019-01-25T17:41:56.994Z,217.67
2019-01-25T17:44:26.729Z,220.37
2019-01-25T17:46:55.876Z,213.07
2019-01-25T17:49:26.954Z,232.97
2019-01-25T17:51:56.096Z,221.97
2019-01-25T17:54:25.381Z,201.73
2019-01-25T17:56:54.601Z,235.93
2019-01-25T17:59:26.268Z,231.03
2019-01-25T18:01:55.583Z,169.37
2019-01-25T18:04:25.715Z,176.23
2019-01-25T18:06:56.181Z,144.97
2019-01-25T18:09:25.365Z,170.37
2019-01-25T18:11:54.513Z,164.13
2019-01-25T18:14:26.284Z,138.27
2019-01-25T18:16:55.907Z,129.33
2019-01-25T18:19:32.421Z,248.60
2019-01-25T18:22:01.535Z,202.73
2019-01-25T18:24:35.879Z,245.87
2019-01-25T18:27:06.550Z,233.97
2019-01-25T18:29:52.199Z,272.40
2019-01-25T18:32:27.645Z,258.87
2019-01-25T18:34:56.824Z,277.20
2019-01-25T18:37:27.519Z,288.47
2019-01-25T18:39:56.645Z,281.10
2019-01-25T18:42:35.024Z,299.23
2019-01-25T18:48:22.492Z,305.23
2019-01-25T18:51:13.148Z,294.27
2019-01-25T18:54:24.816Z,260.50
2019-01-25T18:57:02.992Z,322.40
2019-01-25T18:59:36.067Z,331.83
2019-01-25T19:02:05.348Z,297.17
2019-01-25T19:04:34.534Z,302.27
2019-01-25T19:07:03.744Z,300.20
2019-01-25T19:09:32.874Z,275.17
2019-01-25T19:12:02.042Z,293.50
2019-01-25T19:14:32.107Z,292.17
2019-01-25T19:17:03.726Z,261.07
2019-01-25T19:19:40.709Z,145.50
2019-01-25T19:22:23.511Z,209.87
2019-01-25T19:25:00.345Z,218.20
2019-01-25T19:30:58.863Z,189.63
2019-01-25T19:33:27.981Z,187.03
2019-01-25T19:35:58.761Z,247.93
2019-01-25T19:38:27.899Z,248.30
2019-01-25T19:40:57.081Z,235.87
2019-01-25T19:43:27.859Z,224.43
2019-01-25T19:45:57.249Z,235.27
2019-01-25T19:48:26.448Z,182.93
2019-01-25T19:50:55.597Z,183.43
2019-01-25T19:53:25.006Z,181.47
2019-01-25T19:55:54.221Z,180.47
2019-01-25T19:58:23.611Z,175.40
2019-01-25T20:00:54.344Z,155.30
2019-01-25T20:03:23.663Z,187.53
2019-01-25T20:05:52.901Z,205.07
2019-01-25T20:08:23.043Z,215.93
2019-01-25T20:10:52.186Z,213.47
2019-01-25T20:13:24.901Z,189.23
2019-01-25T20:15:54.042Z,192.27
2019-01-25T20:18:23.478Z,181.67
2019-01-25T20:20:52.634Z,190.60
2019-01-25T20:23:21.858Z,145.23
2019-01-25T20:25:51.070Z,122.23
2019-01-25T20:28:20.356Z,153.27
2019-01-25T20:30:50.023Z,124.73
2019-01-25T20:33:20.572Z,124.00
2019-01-25T20:35:49.711Z,137.90
2019-01-25T20:38:18.860Z,122.63
2019-01-25T20:40:50.399Z,108.73
2019-01-25T20:43:19.543Z,104.23
2019-01-25T20:45:48.692Z,98.73
2019-01-25T20:48:17.813Z,92.20
2019-01-25T20:50:46.916Z,116.43
2019-01-25T20:53:16.065Z,133.70
2019-01-25T20:55:45.213Z,112.77
2019-01-25T20:58:14.361Z,118.13
2019-01-25T21:00:43.647Z,109.20
2019-01-25T21:03:15.086Z,109.60
2019-01-25T21:05:44.233Z,105.33
2019-01-25T21:08:13.402Z,96.03
2019-01-25T21:10:42.542Z,81.37
2019-01-25T21:13:11.758Z,83.17
2019-01-25T21:15:40.989Z,93.13
2019-01-25T21:18:10.106Z,71.90
2019-01-25T21:20:41.662Z,66.53
2019-01-25T21:23:10.906Z,63.20
2019-01-25T21:25:40.528Z,63.87
2019-01-25T21:28:11.050Z,68.40
2019-01-25T21:30:40.405Z,68.33
2019-01-25T21:33:09.542Z,57.20
2019-01-25T21:35:38.663Z,62.10
2019-01-25T21:38:08.023Z,71.73
2019-01-25T21:40:37.119Z,52.87
2019-01-25T21:43:07.183Z,53.80
2019-01-25T21:45:43.015Z,59.13
2019-01-25T21:48:13.829Z,57.63
2019-01-25T21:50:43.696Z,73.63
2019-01-25T21:53:12.846Z,52.90
2019-01-25T21:55:44.930Z,70.43
2019-01-25T21:58:14.371Z,68.50
2019-01-25T22:00:43.659Z,57.80
2019-01-25T22:03:12.766Z,48.60
2019-01-25T22:05:41.887Z,63.37
2019-01-25T22:08:12.189Z,52.70
2019-01-25T22:10:46.714Z,48.37
2019-01-25T22:13:15.801Z,55.33
2019-01-25T22:15:50.756Z,46.20
2019-01-25T22:18:15.750Z,48.37
2019-01-25T22:20:45.312Z,38.13
2019-01-25T22:23:14.401Z,37.30
2019-01-25T22:25:43.551Z,46.03
2019-01-25T22:28:12.924Z,52.47
2019-01-25T22:30:42.076Z,43.20
2019-01-25T22:33:11.259Z,45.03
2019-01-25T22:35:40.464Z,48.47
2019-01-25T22:38:09.585Z,53.67
2019-01-25T22:40:38.727Z,51.80
2019-01-25T22:43:07.861Z,56.73
2019-01-25T22:45:37.124Z,52.57
2019-01-25T22:48:06.946Z,63.73
2019-01-25T22:50:37.260Z,69.80
2019-01-25T22:53:06.625Z,66.77
2019-01-25T22:55:35.758Z,43.50
2019-01-25T22:58:05.311Z,48.63
2019-01-25T23:01:04.140Z,69.83
2019-01-25T23:03:40.263Z,62.10
2019-01-25T23:06:41.443Z,52.47
2019-01-25T23:09:20.192Z,65.10
2019-01-25T23:11:49.808Z,53.93
2019-01-25T23:14:18.928Z,71.27
2019-01-25T23:16:48.156Z,58.77
2019-01-25T23:19:17.444Z,59.23
2019-01-25T23:21:46.663Z,43.37
2019-01-25T23:24:15.846Z,55.03
2019-01-25T23:26:44.960Z,51.23
2019-01-25T23:29:14.116Z,53.93
2019-01-25T23:31:43.254Z,64.07
2019-01-25T23:34:12.412Z,64.93
2019-01-25T23:36:41.537Z,61.23
2019-01-25T23:39:11.529Z,57.33
2019-01-25T23:41:41.398Z,54.17
2019-01-25T23:44:11.626Z,49.60
2019-01-25T23:46:40.766Z,65.67
2019-01-25T23:49:10.025Z,59.70
2019-01-25T23:51:39.140Z,59.03
2019-01-25T23:54:08.252Z,55.53
2019-01-25T23:56:39.222Z,66.17
2019-01-25T23:59:08.428Z,53.97
